AEA72QU LEPA-LECO
Flight info
| Callsign | AEA72QU |
|---|---|
| Flight time | 1h 38m |
| Altitude | 35000 |
| Route | EPAMA N733 VLC/N0347F130 N733 CJN/N0455F350 N733 DESAT/N0453F360 DCT LOMDA |
| Aircraft | B738/M-SDE2E3FGHIRWXY/LB1 |
Departure
| Time | 2026-05-08 17:32 |
|---|---|
| Airport | Palma de Mallorca Airport (LEPA) |
Arrival
| Time | 2026-05-08 19:10 |
|---|---|
| Airport | A Coruña Airport (LECO) |
| Time | Latitude | Longitude | Altitude | Speed | Heading |
|---|---|---|---|---|---|
| 2026-05-08 17:14 | 39.54502 | 2.73229 | 29 ft | 0 kts | 347° |
| 2026-05-08 17:25 | 39.54487 | 2.73234 | 29 ft | 4 kts | 332° |
| 2026-05-08 17:25 | 39.54470 | 2.73255 | 29 ft | 4 kts | 276° |
| 2026-05-08 17:26 | 39.54474 | 2.73279 | 29 ft | 1 kts | 238° |
| 2026-05-08 17:26 | 39.54476 | 2.73283 | 29 ft | 0 kts | 238° |
| 2026-05-08 17:28 | 39.54474 | 2.73280 | 29 ft | 2 kts | 238° |
| 2026-05-08 17:29 | 39.54448 | 2.73227 | 29 ft | 12 kts | 234° |
| 2026-05-08 17:29 | 39.54358 | 2.73210 | 29 ft | 14 kts | 212° |
| 2026-05-08 17:29 | 39.54304 | 2.73104 | 29 ft | 14 kts | 239° |
| 2026-05-08 17:29 | 39.54236 | 2.73067 | 29 ft | 12 kts | 137° |
| 2026-05-08 17:30 | 39.54221 | 2.73136 | 29 ft | 0 kts | 96° |
| 2026-05-08 17:30 | 39.54216 | 2.73201 | 29 ft | 15 kts | 96° |
| 2026-05-08 17:30 | 39.54210 | 2.73348 | 29 ft | 14 kts | 60° |
| 2026-05-08 17:31 | 39.54219 | 2.73367 | 29 ft | 2 kts | 58° |
| 2026-05-08 17:31 | 39.54319 | 2.73578 | 29 ft | 63 kts | 58° |
| 2026-05-08 17:31 | 39.54671 | 2.74323 | 29 ft | 129 kts | 58° |
| 2026-05-08 17:31 | 39.55232 | 2.75500 | 208 ft | 166 kts | 58° |
| 2026-05-08 17:32 | 39.55833 | 2.76770 | 959 ft | 167 kts | 60° |
| 2026-05-08 17:32 | 39.56439 | 2.78106 | 1482 ft | 184 kts | 60° |
| 2026-05-08 17:32 | 39.57137 | 2.79646 | 1825 ft | 207 kts | 60° |
| 2026-05-08 17:32 | 39.57887 | 2.81292 | 2323 ft | 216 kts | 60° |
| 2026-05-08 17:33 | 39.58664 | 2.82988 | 2975 ft | 220 kts | 60° |
| 2026-05-08 17:33 | 39.59449 | 2.84697 | 3721 ft | 222 kts | 60° |
| 2026-05-08 17:33 | 39.60242 | 2.86425 | 4401 ft | 225 kts | 60° |
| 2026-05-08 17:33 | 39.61051 | 2.88184 | 5040 ft | 229 kts | 60° |
| 2026-05-08 17:34 | 39.61874 | 2.89975 | 5702 ft | 233 kts | 60° |
| 2026-05-08 17:34 | 39.62908 | 2.91595 | 6331 ft | 238 kts | 31° |
| 2026-05-08 17:34 | 39.64494 | 2.92073 | 6960 ft | 239 kts | 350° |
| 2026-05-08 17:34 | 39.65962 | 2.91139 | 7568 ft | 239 kts | 310° |
| 2026-05-08 17:35 | 39.66821 | 2.89315 | 8198 ft | 238 kts | 289° |
| 2026-05-08 17:35 | 39.67242 | 2.87232 | 8809 ft | 240 kts | 279° |
| 2026-05-08 17:35 | 39.67551 | 2.85072 | 9293 ft | 247 kts | 278° |
| 2026-05-08 17:35 | 39.67657 | 2.82761 | 9521 ft | 268 kts | 266° |
| 2026-05-08 17:36 | 39.67538 | 2.80271 | 9916 ft | 281 kts | 264° |
| 2026-05-08 17:36 | 39.67377 | 2.77687 | 10317 ft | 296 kts | 263° |
| 2026-05-08 17:36 | 39.67205 | 2.74923 | 10498 ft | 318 kts | 264° |
| 2026-05-08 17:36 | 39.67034 | 2.71981 | 10654 ft | 338 kts | 264° |
| 2026-05-08 17:37 | 39.66866 | 2.68872 | 11010 ft | 350 kts | 264° |
| 2026-05-08 17:37 | 39.66706 | 2.65693 | 11635 ft | 353 kts | 264° |
| 2026-05-08 17:37 | 39.66556 | 2.62534 | 12479 ft | 349 kts | 264° |
| 2026-05-08 17:37 | 39.66410 | 2.59396 | 13262 ft | 349 kts | 264° |
| 2026-05-08 17:38 | 39.66263 | 2.56237 | 13842 ft | 354 kts | 264° |
| 2026-05-08 17:38 | 39.66116 | 2.53045 | 14226 ft | 357 kts | 264° |
| 2026-05-08 17:38 | 39.66084 | 2.49799 | 14935 ft | 358 kts | 268° |
| 2026-05-08 17:38 | 39.66163 | 2.46567 | 15698 ft | 359 kts | 270° |
| 2026-05-08 17:39 | 39.66275 | 2.43322 | 16371 ft | 361 kts | 270° |
| 2026-05-08 17:39 | 39.66392 | 2.40052 | 16999 ft | 364 kts | 270° |
| 2026-05-08 17:39 | 39.66504 | 2.36761 | 17630 ft | 366 kts | 270° |
| 2026-05-08 17:39 | 39.66609 | 2.33453 | 18223 ft | 368 kts | 270° |
| 2026-05-08 17:40 | 39.66708 | 2.30125 | 18783 ft | 371 kts | 270° |
| 2026-05-08 17:40 | 39.66802 | 2.26768 | 19310 ft | 374 kts | 270° |
| 2026-05-08 17:40 | 39.66893 | 2.23386 | 19863 ft | 376 kts | 270° |
| 2026-05-08 17:40 | 39.66982 | 2.19986 | 20376 ft | 379 kts | 270° |
| 2026-05-08 17:41 | 39.67069 | 2.16552 | 20866 ft | 382 kts | 270° |
| 2026-05-08 17:41 | 39.67155 | 2.13098 | 21363 ft | 384 kts | 270° |
| 2026-05-08 17:41 | 39.67241 | 2.09609 | 21809 ft | 387 kts | 270° |
| 2026-05-08 17:41 | 39.67326 | 2.06113 | 22247 ft | 390 kts | 270° |
| 2026-05-08 17:42 | 39.67411 | 2.02588 | 22710 ft | 392 kts | 270° |
| 2026-05-08 17:42 | 39.67495 | 1.99042 | 23127 ft | 394 kts | 270° |
| 2026-05-08 17:42 | 39.67579 | 1.95469 | 23510 ft | 397 kts | 270° |
| 2026-05-08 17:42 | 39.67662 | 1.91874 | 23941 ft | 399 kts | 270° |
| 2026-05-08 17:43 | 39.67745 | 1.88268 | 24349 ft | 401 kts | 270° |
| 2026-05-08 17:43 | 39.67826 | 1.84639 | 24711 ft | 403 kts | 270° |
| 2026-05-08 17:43 | 39.67907 | 1.80987 | 25057 ft | 406 kts | 270° |
| 2026-05-08 17:43 | 39.67987 | 1.77313 | 25434 ft | 408 kts | 270° |
| 2026-05-08 17:44 | 39.68066 | 1.73625 | 25812 ft | 410 kts | 270° |
| 2026-05-08 17:44 | 39.68145 | 1.69925 | 26138 ft | 412 kts | 270° |
| 2026-05-08 17:44 | 39.68223 | 1.66198 | 26461 ft | 414 kts | 269° |
| 2026-05-08 17:44 | 39.68299 | 1.62458 | 26796 ft | 415 kts | 269° |
| 2026-05-08 17:45 | 39.68375 | 1.58700 | 27087 ft | 418 kts | 269° |
| 2026-05-08 17:45 | 39.68450 | 1.54921 | 27393 ft | 419 kts | 269° |
| 2026-05-08 17:45 | 39.68524 | 1.51131 | 27706 ft | 421 kts | 269° |
| 2026-05-08 17:45 | 39.68598 | 1.47319 | 28002 ft | 422 kts | 269° |
| 2026-05-08 17:46 | 39.68670 | 1.43506 | 28327 ft | 423 kts | 269° |
| 2026-05-08 17:46 | 39.68741 | 1.39688 | 28654 ft | 423 kts | 269° |
| 2026-05-08 17:46 | 39.68811 | 1.35876 | 29049 ft | 421 kts | 269° |
| 2026-05-08 17:46 | 39.68880 | 1.32084 | 29519 ft | 418 kts | 269° |
| 2026-05-08 17:47 | 39.68946 | 1.28333 | 29916 ft | 416 kts | 268° |
| 2026-05-08 17:47 | 39.69012 | 1.24581 | 30247 ft | 415 kts | 268° |
| 2026-05-08 17:47 | 39.69076 | 1.20837 | 30611 ft | 414 kts | 268° |
| 2026-05-08 17:47 | 39.69117 | 1.18364 | 30873 ft | 412 kts | 268° |
| 2026-05-08 17:48 | 39.69198 | 1.13405 | 31392 ft | 410 kts | 268° |
| 2026-05-08 17:48 | 39.69257 | 1.09717 | 31765 ft | 408 kts | 268° |
| 2026-05-08 17:48 | 39.69315 | 1.06044 | 32112 ft | 406 kts | 268° |
| 2026-05-08 17:48 | 39.69371 | 1.02383 | 32432 ft | 405 kts | 268° |
| 2026-05-08 17:49 | 39.69426 | 0.98732 | 32754 ft | 404 kts | 268° |
| 2026-05-08 17:49 | 39.69480 | 0.95095 | 33068 ft | 402 kts | 268° |
| 2026-05-08 17:49 | 39.69533 | 0.91461 | 33375 ft | 401 kts | 268° |
| 2026-05-08 17:49 | 39.69584 | 0.87840 | 33637 ft | 401 kts | 268° |
| 2026-05-08 17:50 | 39.69633 | 0.84222 | 33894 ft | 401 kts | 267° |
| 2026-05-08 17:50 | 39.69682 | 0.80604 | 34195 ft | 399 kts | 267° |
| 2026-05-08 17:50 | 39.69730 | 0.77010 | 34425 ft | 399 kts | 267° |
| 2026-05-08 17:50 | 39.69776 | 0.73401 | 34612 ft | 400 kts | 267° |
| 2026-05-08 17:51 | 39.69821 | 0.69788 | 34840 ft | 400 kts | 267° |
| 2026-05-08 17:51 | 39.69865 | 0.66166 | 34976 ft | 402 kts | 267° |
| 2026-05-08 17:51 | 39.69950 | 0.58886 | 34973 ft | 403 kts | 267° |
| 2026-05-08 17:52 | 39.70033 | 0.51628 | 34980 ft | 400 kts | 267° |
| 2026-05-08 17:53 | 39.70147 | 0.40825 | 34979 ft | 398 kts | 267° |
| 2026-05-08 17:53 | 39.70216 | 0.33643 | 34982 ft | 398 kts | 267° |
| 2026-05-08 17:54 | 39.70279 | 0.26447 | 34996 ft | 399 kts | 267° |
| 2026-05-08 17:54 | 39.70339 | 0.19219 | 34991 ft | 402 kts | 267° |
| 2026-05-08 17:55 | 39.70395 | 0.11941 | 34998 ft | 404 kts | 267° |
| 2026-05-08 17:55 | 39.70448 | 0.04609 | 34994 ft | 407 kts | 267° |
| 2026-05-08 17:56 | 39.70496 | -0.02763 | 34987 ft | 409 kts | 267° |
| 2026-05-08 17:56 | 39.70541 | -0.10102 | 34984 ft | 397 kts | 267° |
| 2026-05-08 17:56 | 39.70564 | -0.13629 | 34981 ft | 384 kts | 267° |
| 2026-05-08 17:57 | 39.70584 | -0.17061 | 34980 ft | 378 kts | 266° |
| 2026-05-08 17:57 | 39.70613 | -0.23894 | 34990 ft | 379 kts | 266° |
| 2026-05-08 17:58 | 39.70638 | -0.30760 | 35002 ft | 381 kts | 266° |
| 2026-05-08 17:58 | 39.70658 | -0.36500 | 34980 ft | 383 kts | 267° |
| 2026-05-08 17:59 | 39.70678 | -0.43433 | 34998 ft | 384 kts | 266° |
| 2026-05-08 17:59 | 39.70695 | -0.50388 | 35001 ft | 387 kts | 266° |
| 2026-05-08 18:00 | 39.70708 | -0.57401 | 34991 ft | 390 kts | 266° |
| 2026-05-08 18:00 | 39.70720 | -0.67993 | 34988 ft | 392 kts | 266° |
| 2026-05-08 18:01 | 39.70722 | -0.75081 | 34983 ft | 392 kts | 266° |
| 2026-05-08 18:01 | 39.70721 | -0.82164 | 34992 ft | 393 kts | 266° |
| 2026-05-08 18:02 | 39.70715 | -0.89265 | 34989 ft | 392 kts | 266° |
| 2026-05-08 18:02 | 39.71073 | -0.96338 | 34981 ft | 397 kts | 277° |
| 2026-05-08 18:03 | 39.72718 | -1.03227 | 34977 ft | 405 kts | 288° |
| 2026-05-08 18:03 | 39.75483 | -1.09681 | 34981 ft | 409 kts | 293° |
| 2026-05-08 18:04 | 39.78304 | -1.16089 | 34960 ft | 407 kts | 292° |
| 2026-05-08 18:04 | 39.81071 | -1.22510 | 34972 ft | 407 kts | 292° |
| 2026-05-08 18:05 | 39.83865 | -1.28910 | 34963 ft | 407 kts | 293° |
| 2026-05-08 18:05 | 39.86670 | -1.35319 | 34975 ft | 408 kts | 292° |
| 2026-05-08 18:06 | 39.89478 | -1.41764 | 34979 ft | 410 kts | 292° |
| 2026-05-08 18:06 | 39.92286 | -1.48255 | 34966 ft | 412 kts | 292° |
| 2026-05-08 18:07 | 39.95076 | -1.54745 | 34962 ft | 413 kts | 292° |
| 2026-05-08 18:07 | 39.97886 | -1.61297 | 34969 ft | 415 kts | 292° |
| 2026-05-08 18:08 | 40.00704 | -1.67876 | 34962 ft | 416 kts | 292° |
| 2026-05-08 18:08 | 40.03529 | -1.74488 | 34966 ft | 417 kts | 293° |
| 2026-05-08 18:09 | 40.06361 | -1.81125 | 34967 ft | 418 kts | 292° |
| 2026-05-08 18:09 | 40.09189 | -1.87771 | 34964 ft | 419 kts | 292° |
| 2026-05-08 18:10 | 40.12016 | -1.94425 | 34957 ft | 419 kts | 292° |
| 2026-05-08 18:10 | 40.14839 | -2.01086 | 34955 ft | 418 kts | 292° |
| 2026-05-08 18:11 | 40.17666 | -2.07727 | 34956 ft | 417 kts | 292° |
| 2026-05-08 18:11 | 40.20492 | -2.14363 | 34945 ft | 417 kts | 292° |
| 2026-05-08 18:12 | 40.23286 | -2.20994 | 34938 ft | 415 kts | 292° |
| 2026-05-08 18:12 | 40.26041 | -2.27609 | 34948 ft | 414 kts | 292° |
| 2026-05-08 18:13 | 40.28795 | -2.34228 | 34947 ft | 413 kts | 292° |
| 2026-05-08 18:13 | 40.31545 | -2.40846 | 34956 ft | 413 kts | 290° |
| 2026-05-08 18:14 | 40.34269 | -2.47400 | 34928 ft | 400 kts | 289° |
| 2026-05-08 18:14 | 40.35579 | -2.50552 | 34923 ft | 389 kts | 289° |
| 2026-05-08 18:14 | 40.36861 | -2.53651 | 34925 ft | 385 kts | 288° |
| 2026-05-08 18:15 | 40.39355 | -2.59882 | 34935 ft | 387 kts | 288° |
| 2026-05-08 18:15 | 40.41822 | -2.66201 | 34924 ft | 391 kts | 288° |
| 2026-05-08 18:16 | 40.44311 | -2.72578 | 34942 ft | 394 kts | 288° |
| 2026-05-08 18:16 | 40.46822 | -2.79009 | 34943 ft | 397 kts | 288° |
| 2026-05-08 18:17 | 40.49354 | -2.85498 | 34930 ft | 400 kts | 288° |
| 2026-05-08 18:17 | 40.51897 | -2.92024 | 34934 ft | 403 kts | 288° |
| 2026-05-08 18:18 | 40.54441 | -2.98563 | 34928 ft | 404 kts | 288° |
| 2026-05-08 18:18 | 40.56998 | -3.05153 | 34926 ft | 405 kts | 288° |
| 2026-05-08 18:19 | 40.59558 | -3.11762 | 34921 ft | 405 kts | 288° |
| 2026-05-08 18:19 | 40.62109 | -3.18363 | 34927 ft | 404 kts | 288° |
| 2026-05-08 18:20 | 40.64652 | -3.24962 | 34921 ft | 403 kts | 288° |
| 2026-05-08 18:20 | 40.67185 | -3.31547 | 34918 ft | 403 kts | 288° |
| 2026-05-08 18:21 | 40.69708 | -3.38128 | 34910 ft | 402 kts | 287° |
| 2026-05-08 18:21 | 40.72224 | -3.44700 | 34921 ft | 401 kts | 287° |
| 2026-05-08 18:22 | 40.74748 | -3.51310 | 34917 ft | 401 kts | 287° |
| 2026-05-08 18:22 | 40.77238 | -3.57843 | 34934 ft | 400 kts | 287° |
| 2026-05-08 18:23 | 40.79731 | -3.64403 | 34936 ft | 401 kts | 287° |
| 2026-05-08 18:23 | 40.82228 | -3.70987 | 34937 ft | 401 kts | 287° |
| 2026-05-08 18:24 | 40.84727 | -3.77590 | 34928 ft | 402 kts | 287° |
| 2026-05-08 18:24 | 40.87242 | -3.84249 | 34940 ft | 403 kts | 287° |
| 2026-05-08 18:25 | 40.89730 | -3.90852 | 34935 ft | 404 kts | 287° |
| 2026-05-08 18:25 | 40.92234 | -3.97517 | 34943 ft | 406 kts | 287° |
| 2026-05-08 18:26 | 40.94750 | -4.04224 | 34932 ft | 408 kts | 287° |
| 2026-05-08 18:26 | 40.97274 | -4.10969 | 34939 ft | 409 kts | 287° |
| 2026-05-08 18:27 | 40.99393 | -4.16642 | 34930 ft | 411 kts | 287° |
| 2026-05-08 18:27 | 41.02334 | -4.24536 | 34931 ft | 412 kts | 288° |
| 2026-05-08 18:28 | 41.04877 | -4.31354 | 34921 ft | 413 kts | 288° |
| 2026-05-08 18:28 | 41.07418 | -4.38183 | 34916 ft | 413 kts | 288° |
| 2026-05-08 18:29 | 41.09956 | -4.45019 | 34918 ft | 413 kts | 288° |
| 2026-05-08 18:29 | 41.12491 | -4.51865 | 34917 ft | 414 kts | 288° |
| 2026-05-08 18:30 | 41.15025 | -4.58722 | 34915 ft | 414 kts | 288° |
| 2026-05-08 18:30 | 41.17552 | -4.65591 | 34918 ft | 414 kts | 288° |
| 2026-05-08 18:31 | 41.20066 | -4.72474 | 34901 ft | 415 kts | 287° |
| 2026-05-08 18:31 | 41.22582 | -4.79379 | 34911 ft | 415 kts | 287° |
| 2026-05-08 18:32 | 41.25096 | -4.86285 | 34909 ft | 415 kts | 287° |
| 2026-05-08 18:32 | 41.27608 | -4.93205 | 34907 ft | 416 kts | 287° |
| 2026-05-08 18:33 | 41.30121 | -5.00142 | 34908 ft | 416 kts | 287° |
| 2026-05-08 18:33 | 41.32635 | -5.07088 | 34904 ft | 417 kts | 287° |
| 2026-05-08 18:34 | 41.35151 | -5.14057 | 34897 ft | 418 kts | 287° |
| 2026-05-08 18:34 | 41.37660 | -5.21021 | 34895 ft | 418 kts | 287° |
| 2026-05-08 18:35 | 41.40174 | -5.28020 | 34899 ft | 419 kts | 287° |
| 2026-05-08 18:35 | 41.42685 | -5.35028 | 34897 ft | 419 kts | 287° |
| 2026-05-08 18:36 | 41.45190 | -5.42036 | 34899 ft | 420 kts | 287° |
| 2026-05-08 18:36 | 41.47641 | -5.48909 | 34896 ft | 420 kts | 287° |
| 2026-05-08 18:37 | 41.49728 | -5.54776 | 34900 ft | 421 kts | 287° |
| 2026-05-08 18:37 | 41.52237 | -5.61845 | 34898 ft | 422 kts | 287° |
| 2026-05-08 18:38 | 41.55291 | -5.68648 | 34907 ft | 433 kts | 297° |
| 2026-05-08 18:38 | 41.58812 | -5.75228 | 34905 ft | 436 kts | 297° |
| 2026-05-08 18:39 | 41.62326 | -5.81839 | 34898 ft | 436 kts | 297° |
| 2026-05-08 18:39 | 41.65811 | -5.88495 | 34886 ft | 437 kts | 297° |
| 2026-05-08 18:40 | 41.69296 | -5.95199 | 34880 ft | 439 kts | 297° |
| 2026-05-08 18:40 | 41.72782 | -6.01921 | 34880 ft | 440 kts | 297° |
| 2026-05-08 18:41 | 41.76271 | -6.08661 | 34883 ft | 441 kts | 297° |
| 2026-05-08 18:41 | 41.79764 | -6.15419 | 34876 ft | 441 kts | 297° |
| 2026-05-08 18:42 | 41.83464 | -6.22013 | 34872 ft | 450 kts | 306° |
| 2026-05-08 18:42 | 41.88363 | -6.27444 | 34887 ft | 460 kts | 315° |
| 2026-05-08 18:43 | 41.93471 | -6.32615 | 34884 ft | 459 kts | 315° |
| 2026-05-08 18:43 | 41.98553 | -6.37818 | 34885 ft | 458 kts | 315° |
| 2026-05-08 18:44 | 42.03596 | -6.43047 | 34887 ft | 458 kts | 315° |
| 2026-05-08 18:44 | 42.06108 | -6.45662 | 34625 ft | 454 kts | 315° |
| 2026-05-08 18:44 | 42.08582 | -6.48240 | 34201 ft | 448 kts | 315° |
| 2026-05-08 18:45 | 42.11047 | -6.50814 | 33540 ft | 450 kts | 315° |
| 2026-05-08 18:45 | 42.13528 | -6.53413 | 32833 ft | 453 kts | 315° |
| 2026-05-08 18:45 | 42.16013 | -6.56017 | 32270 ft | 451 kts | 315° |
| 2026-05-08 18:45 | 42.18481 | -6.58600 | 31849 ft | 446 kts | 315° |
| 2026-05-08 18:46 | 42.20920 | -6.61153 | 31440 ft | 442 kts | 315° |
| 2026-05-08 18:46 | 42.23340 | -6.63690 | 30961 ft | 438 kts | 315° |
| 2026-05-08 18:46 | 42.25739 | -6.66209 | 30475 ft | 435 kts | 315° |
| 2026-05-08 18:46 | 42.28116 | -6.68707 | 30034 ft | 431 kts | 315° |
| 2026-05-08 18:47 | 42.30474 | -6.71189 | 29571 ft | 428 kts | 315° |
| 2026-05-08 18:47 | 42.32817 | -6.73657 | 29094 ft | 425 kts | 315° |
| 2026-05-08 18:47 | 42.35140 | -6.76109 | 28585 ft | 423 kts | 316° |
| 2026-05-08 18:47 | 42.37453 | -6.78552 | 28088 ft | 420 kts | 316° |
| 2026-05-08 18:48 | 42.39748 | -6.80977 | 27630 ft | 417 kts | 316° |
| 2026-05-08 18:48 | 42.42021 | -6.83380 | 27211 ft | 413 kts | 316° |
| 2026-05-08 18:48 | 42.44277 | -6.85769 | 26709 ft | 411 kts | 316° |
| 2026-05-08 18:48 | 42.46532 | -6.88159 | 26218 ft | 410 kts | 316° |
| 2026-05-08 18:49 | 42.48767 | -6.90531 | 25739 ft | 408 kts | 316° |
| 2026-05-08 18:49 | 42.50990 | -6.92890 | 25287 ft | 405 kts | 317° |
| 2026-05-08 18:49 | 42.53202 | -6.95240 | 24841 ft | 403 kts | 317° |
| 2026-05-08 18:49 | 42.55399 | -6.97577 | 24419 ft | 400 kts | 317° |
| 2026-05-08 18:50 | 42.57588 | -6.99906 | 23910 ft | 399 kts | 317° |
| 2026-05-08 18:50 | 42.59783 | -7.02246 | 23390 ft | 399 kts | 317° |
| 2026-05-08 18:50 | 42.61958 | -7.04565 | 22952 ft | 396 kts | 317° |
| 2026-05-08 18:50 | 42.64121 | -7.06875 | 22497 ft | 394 kts | 317° |
| 2026-05-08 18:51 | 42.66267 | -7.09167 | 22058 ft | 391 kts | 317° |
| 2026-05-08 18:51 | 42.68390 | -7.11437 | 21639 ft | 388 kts | 317° |
| 2026-05-08 18:51 | 42.70507 | -7.13704 | 21197 ft | 386 kts | 317° |
| 2026-05-08 18:51 | 42.72610 | -7.15957 | 20762 ft | 383 kts | 317° |
| 2026-05-08 18:52 | 42.74697 | -7.18196 | 20331 ft | 381 kts | 317° |
| 2026-05-08 18:52 | 42.76769 | -7.20420 | 19919 ft | 378 kts | 317° |
| 2026-05-08 18:52 | 42.78827 | -7.22630 | 19492 ft | 376 kts | 318° |
| 2026-05-08 18:52 | 42.80872 | -7.24829 | 19069 ft | 373 kts | 318° |
| 2026-05-08 18:53 | 42.82903 | -7.27014 | 18648 ft | 371 kts | 318° |
| 2026-05-08 18:53 | 42.84897 | -7.29221 | 18230 ft | 367 kts | 314° |
| 2026-05-08 18:53 | 42.86613 | -7.31771 | 17613 ft | 366 kts | 303° |
| 2026-05-08 18:53 | 42.88140 | -7.34553 | 17146 ft | 365 kts | 302° |
| 2026-05-08 18:54 | 42.89630 | -7.37343 | 16702 ft | 363 kts | 302° |
| 2026-05-08 18:54 | 42.91110 | -7.40122 | 16289 ft | 361 kts | 302° |
| 2026-05-08 18:54 | 42.92585 | -7.42881 | 15872 ft | 358 kts | 303° |
| 2026-05-08 18:54 | 42.94057 | -7.45618 | 15464 ft | 356 kts | 303° |
| 2026-05-08 18:55 | 42.96958 | -7.50986 | 14664 ft | 351 kts | 303° |
| 2026-05-08 18:55 | 42.98403 | -7.53656 | 14281 ft | 348 kts | 303° |
| 2026-05-08 18:55 | 42.99841 | -7.56315 | 13875 ft | 346 kts | 303° |
| 2026-05-08 18:56 | 43.01265 | -7.58946 | 13480 ft | 344 kts | 303° |
| 2026-05-08 18:56 | 43.02679 | -7.61561 | 13082 ft | 341 kts | 303° |
| 2026-05-08 18:56 | 43.04082 | -7.64158 | 12697 ft | 338 kts | 303° |
| 2026-05-08 18:56 | 43.05472 | -7.66731 | 12316 ft | 335 kts | 303° |
| 2026-05-08 18:57 | 43.06851 | -7.69288 | 11933 ft | 333 kts | 303° |
| 2026-05-08 18:57 | 43.07775 | -7.71002 | 11672 ft | 331 kts | 303° |
| 2026-05-08 18:57 | 43.09583 | -7.74362 | 11165 ft | 329 kts | 304° |
| 2026-05-08 18:57 | 43.10934 | -7.76873 | 10791 ft | 327 kts | 304° |
| 2026-05-08 18:58 | 43.12276 | -7.79369 | 10409 ft | 324 kts | 304° |
| 2026-05-08 18:58 | 43.13593 | -7.81819 | 10272 ft | 314 kts | 304° |
| 2026-05-08 18:58 | 43.14870 | -7.84197 | 10127 ft | 306 kts | 304° |
| 2026-05-08 18:58 | 43.16111 | -7.86510 | 9994 ft | 297 kts | 304° |
| 2026-05-08 18:59 | 43.17316 | -7.88760 | 9864 ft | 289 kts | 304° |
| 2026-05-08 18:59 | 43.18497 | -7.90965 | 9594 ft | 286 kts | 304° |
| 2026-05-08 18:59 | 43.19669 | -7.93157 | 9333 ft | 284 kts | 304° |
| 2026-05-08 18:59 | 43.20834 | -7.95337 | 9047 ft | 283 kts | 304° |
| 2026-05-08 19:00 | 43.21993 | -7.97507 | 8765 ft | 282 kts | 304° |
| 2026-05-08 19:00 | 43.23150 | -7.99675 | 8468 ft | 280 kts | 304° |
| 2026-05-08 19:00 | 43.24298 | -8.01829 | 8194 ft | 279 kts | 305° |
| 2026-05-08 19:00 | 43.25440 | -8.03969 | 7918 ft | 278 kts | 305° |
| 2026-05-08 19:01 | 43.26583 | -8.06113 | 7633 ft | 277 kts | 305° |
| 2026-05-08 19:01 | 43.27714 | -8.08238 | 7377 ft | 275 kts | 305° |
| 2026-05-08 19:01 | 43.28830 | -8.10324 | 7206 ft | 269 kts | 307° |
| 2026-05-08 19:01 | 43.30264 | -8.11933 | 6925 ft | 269 kts | 338° |
| 2026-05-08 19:02 | 43.32087 | -8.12459 | 6605 ft | 269 kts | 356° |
| 2026-05-08 19:02 | 43.33954 | -8.12584 | 6328 ft | 268 kts | 358° |
| 2026-05-08 19:02 | 43.35817 | -8.12696 | 6044 ft | 268 kts | 357° |
| 2026-05-08 19:02 | 43.37675 | -8.12820 | 5767 ft | 267 kts | 357° |
| 2026-05-08 19:03 | 43.39526 | -8.12955 | 5493 ft | 266 kts | 357° |
| 2026-05-08 19:03 | 43.41371 | -8.13095 | 5218 ft | 265 kts | 356° |
| 2026-05-08 19:03 | 43.43206 | -8.13236 | 4950 ft | 263 kts | 356° |
| 2026-05-08 19:03 | 43.45016 | -8.13559 | 4681 ft | 261 kts | 342° |
| 2026-05-08 19:04 | 43.46584 | -8.14659 | 4575 ft | 250 kts | 324° |
| 2026-05-08 19:04 | 43.47912 | -8.16172 | 4458 ft | 243 kts | 317° |
| 2026-05-08 19:04 | 43.49091 | -8.17751 | 4334 ft | 230 kts | 312° |
| 2026-05-08 19:04 | 43.49819 | -8.19619 | 4088 ft | 221 kts | 276° |
| 2026-05-08 19:05 | 43.49466 | -8.21602 | 3684 ft | 217 kts | 232° |
| 2026-05-08 19:05 | 43.48293 | -8.22865 | 3350 ft | 213 kts | 211° |
| 2026-05-08 19:05 | 43.47033 | -8.23897 | 3067 ft | 210 kts | 211° |
| 2026-05-08 19:05 | 43.45767 | -8.24931 | 3033 ft | 212 kts | 211° |
| 2026-05-08 19:06 | 43.44504 | -8.25965 | 3003 ft | 209 kts | 211° |
| 2026-05-08 19:06 | 43.43282 | -8.26967 | 2984 ft | 199 kts | 211° |
| 2026-05-08 19:06 | 43.42111 | -8.27928 | 2817 ft | 194 kts | 211° |
| 2026-05-08 19:06 | 43.40963 | -8.28870 | 2575 ft | 191 kts | 211° |
| 2026-05-08 19:07 | 43.39832 | -8.29801 | 2331 ft | 188 kts | 211° |
| 2026-05-08 19:07 | 43.38735 | -8.30704 | 2091 ft | 178 kts | 211° |
| 2026-05-08 19:07 | 43.37706 | -8.31552 | 1849 ft | 168 kts | 211° |
| 2026-05-08 19:07 | 43.36724 | -8.32360 | 1676 ft | 159 kts | 211° |
| 2026-05-08 19:08 | 43.35790 | -8.33129 | 1432 ft | 153 kts | 210° |
| 2026-05-08 19:08 | 43.34873 | -8.33883 | 1232 ft | 155 kts | 211° |
| 2026-05-08 19:08 | 43.33947 | -8.34646 | 1027 ft | 155 kts | 211° |
| 2026-05-08 19:08 | 43.33021 | -8.35409 | 817 ft | 155 kts | 211° |
| 2026-05-08 19:09 | 43.32100 | -8.36167 | 615 ft | 154 kts | 211° |
| 2026-05-08 19:09 | 43.31190 | -8.36919 | 393 ft | 151 kts | 211° |
| 2026-05-08 19:09 | 43.30301 | -8.37647 | 273 ft | 138 kts | 211° |
| 2026-05-08 19:09 | 43.29666 | -8.38168 | 273 ft | 73 kts | 211° |
| 2026-05-08 19:10 | 43.29319 | -8.38454 | 270 ft | 44 kts | 211° |
| 2026-05-08 19:10 | 43.29190 | -8.38580 | 269 ft | 15 kts | 128° |
| 2026-05-08 19:10 | 43.29244 | -8.38512 | 270 ft | 11 kts | 27° |
| 2026-05-08 19:10 | 43.29315 | -8.38457 | 270 ft | 13 kts | 30° |
| 2026-05-08 19:11 | 43.29416 | -8.38375 | 268 ft | 21 kts | 31° |
| 2026-05-08 19:11 | 43.29557 | -8.38259 | 269 ft | 26 kts | 31° |
| 2026-05-08 19:11 | 43.29727 | -8.38120 | 271 ft | 29 kts | 31° |
| 2026-05-08 19:11 | 43.29894 | -8.37983 | 273 ft | 23 kts | 28° |
| 2026-05-08 19:12 | 43.29975 | -8.38047 | 272 ft | 13 kts | 316° |
| 2026-05-08 19:12 | 43.30060 | -8.38072 | 273 ft | 13 kts | 6° |
| 2026-05-08 19:12 | 43.30137 | -8.38022 | 273 ft | 11 kts | 32° |
| 2026-05-08 19:12 | 43.30181 | -8.38021 | 277 ft | 5 kts | 312° |
| 2026-05-08 19:13 | 43.30194 | -8.38028 | 273 ft | 2 kts | 10° |
| 2026-05-08 19:13 | 43.30202 | -8.38025 | 273 ft | 0 kts | 15° |